sensor_id;sensor_type;location;lat;lon;timestamp;temperature;humidity
22966;DHT22;11649;48.090;9.754;2023-01-05T00:01:08;8.90;99.90
22966;DHT22;11649;48.090;9.754;2023-01-05T00:03:35;8.90;99.90
22966;DHT22;11649;48.090;9.754;2023-01-05T00:06:14;8.90;99.90
22966;DHT22;11649;48.090;9.754;2023-01-05T00:08:45;8.90;99.90
22966;DHT22;11649;48.090;9.754;2023-01-05T00:11:18;9.00;99.90
22966;DHT22;11649;48.090;9.754;2023-01-05T00:14:04;9.00;99.90
22966;DHT22;11649;48.090;9.754;2023-01-05T00:16:50;9.00;99.90
22966;DHT22;11649;48.090;9.754;2023-01-05T00:19:35;9.00;99.90
22966;DHT22;11649;48.090;9.754;2023-01-05T00:22:25;9.00;99.90
22966;DHT22;11649;48.090;9.754;2023-01-05T00:25:08;9.00;99.90
22966;DHT22;11649;48.090;9.754;2023-01-05T00:27:43;9.00;99.90
22966;DHT22;11649;48.090;9.754;2023-01-05T00:30:12;9.00;99.90
22966;DHT22;11649;48.090;9.754;2023-01-05T00:32:41;9.00;99.90
22966;DHT22;11649;48.090;9.754;2023-01-05T00:35:10;9.00;99.90
22966;DHT22;11649;48.090;9.754;2023-01-05T00:37:37;9.00;99.90
22966;DHT22;11649;48.090;9.754;2023-01-05T00:40:10;9.10;99.90
22966;DHT22;11649;48.090;9.754;2023-01-05T00:42:37;9.10;99.90
22966;DHT22;11649;48.090;9.754;2023-01-05T00:45:06;9.10;99.90
22966;DHT22;11649;48.090;9.754;2023-01-05T00:47:34;9.10;99.90
22966;DHT22;11649;48.090;9.754;2023-01-05T00:50:01;9.10;99.90
22966;DHT22;11649;48.090;9.754;2023-01-05T00:52:28;9.10;99.90
22966;DHT22;11649;48.090;9.754;2023-01-05T00:54:54;9.00;99.90
22966;DHT22;11649;48.090;9.754;2023-01-05T00:57:21;8.90;99.90
22966;DHT22;11649;48.090;9.754;2023-01-05T00:59:48;8.90;99.90
22966;DHT22;11649;48.090;9.754;2023-01-05T01:02:15;8.80;99.90
22966;DHT22;11649;48.090;9.754;2023-01-05T01:04:42;8.90;99.90
22966;DHT22;11649;48.090;9.754;2023-01-05T01:07:09;8.90;99.90
22966;DHT22;11649;48.090;9.754;2023-01-05T01:09:35;8.90;99.90
22966;DHT22;11649;48.090;9.754;2023-01-05T01:12:03;8.90;99.90
22966;DHT22;11649;48.090;9.754;2023-01-05T01:14:30;8.90;99.90
22966;DHT22;11649;48.090;9.754;2023-01-05T01:16:56;9.00;99.90
22966;DHT22;11649;48.090;9.754;2023-01-05T01:19:25;9.00;99.90
22966;DHT22;11649;48.090;9.754;2023-01-05T01:21:52;9.00;99.90
22966;DHT22;11649;48.090;9.754;2023-01-05T01:24:24;9.00;99.90
22966;DHT22;11649;48.090;9.754;2023-01-05T01:26:51;9.00;99.90
22966;DHT22;11649;48.090;9.754;2023-01-05T01:29:19;9.00;99.90
22966;DHT22;11649;48.090;9.754;2023-01-05T01:31:48;9.00;99.90
22966;DHT22;11649;48.090;9.754;2023-01-05T01:34:15;9.10;99.90
22966;DHT22;11649;48.090;9.754;2023-01-05T01:36:43;9.10;99.90
22966;DHT22;11649;48.090;9.754;2023-01-05T01:39:11;9.00;99.90
22966;DHT22;11649;48.090;9.754;2023-01-05T01:41:38;9.10;99.90
22966;DHT22;11649;48.090;9.754;2023-01-05T01:44:51;9.10;99.90
22966;DHT22;11649;48.090;9.754;2023-01-05T01:47:32;9.10;99.90
22966;DHT22;11649;48.090;9.754;2023-01-05T01:50:06;9.20;99.90
22966;DHT22;11649;48.090;9.754;2023-01-05T01:52:34;9.20;99.90
22966;DHT22;11649;48.090;9.754;2023-01-05T01:55:04;9.10;99.90
22966;DHT22;11649;48.090;9.754;2023-01-05T01:57:32;9.00;99.90
22966;DHT22;11649;48.090;9.754;2023-01-05T02:00:02;9.00;99.90
22966;DHT22;11649;48.090;9.754;2023-01-05T02:02:30;9.00;99.90
22966;DHT22;11649;48.090;9.754;2023-01-05T02:05:02;9.00;99.90
22966;DHT22;11649;48.090;9.754;2023-01-05T02:07:33;8.90;99.90
22966;DHT22;11649;48.090;9.754;2023-01-05T02:10:01;9.00;99.90
22966;DHT22;11649;48.090;9.754;2023-01-05T02:29:41;9.00;99.90
22966;DHT22;11649;48.090;9.754;2023-01-05T02:32:25;9.10;99.90
22966;DHT22;11649;48.090;9.754;2023-01-05T02:35:12;9.10;99.90
22966;DHT22;11649;48.090;9.754;2023-01-05T02:37:47;9.10;99.90
22966;DHT22;11649;48.090;9.754;2023-01-05T02:40:22;9.10;99.90
22966;DHT22;11649;48.090;9.754;2023-01-05T02:42:52;9.10;99.90
22966;DHT22;11649;48.090;9.754;2023-01-05T02:45:22;9.10;99.90
22966;DHT22;11649;48.090;9.754;2023-01-05T02:47:49;9.10;99.90
22966;DHT22;11649;48.090;9.754;2023-01-05T02:50:23;9.20;99.90
22966;DHT22;11649;48.090;9.754;2023-01-05T02:53:09;9.20;99.90
22966;DHT22;11649;48.090;9.754;2023-01-05T02:55:43;9.10;99.90
22966;DHT22;11649;48.090;9.754;2023-01-05T02:58:20;9.20;99.90
22966;DHT22;11649;48.090;9.754;2023-01-05T03:00:55;9.10;99.90
22966;DHT22;11649;48.090;9.754;2023-01-05T03:03:42;9.20;99.90
22966;DHT22;11649;48.090;9.754;2023-01-05T03:06:16;9.20;99.90
22966;DHT22;11649;48.090;9.754;2023-01-05T03:08:54;9.10;99.90
22966;DHT22;11649;48.090;9.754;2023-01-05T03:11:27;9.10;99.90
22966;DHT22;11649;48.090;9.754;2023-01-05T03:14:21;9.00;99.90
22966;DHT22;11649;48.090;9.754;2023-01-05T03:16:50;9.10;99.90
22966;DHT22;11649;48.090;9.754;2023-01-05T03:19:20;9.10;99.90
22966;DHT22;11649;48.090;9.754;2023-01-05T03:22:20;9.20;99.90
22966;DHT22;11649;48.090;9.754;2023-01-05T03:25:09;9.20;99.90
22966;DHT22;11649;48.090;9.754;2023-01-05T03:27:56;9.20;99.90
22966;DHT22;11649;48.090;9.754;2023-01-05T03:31:02;9.20;99.90
22966;DHT22;11649;48.090;9.754;2023-01-05T03:36:44;9.20;99.90
22966;DHT22;11649;48.090;9.754;2023-01-05T03:39:14;9.20;99.90
22966;DHT22;11649;48.090;9.754;2023-01-05T03:41:42;9.20;99.90
22966;DHT22;11649;48.090;9.754;2023-01-05T03:44:09;9.20;99.90
22966;DHT22;11649;48.090;9.754;2023-01-05T03:46:38;9.20;99.90
22966;DHT22;11649;48.090;9.754;2023-01-05T03:49:06;9.20;99.90
22966;DHT22;11649;48.090;9.754;2023-01-05T03:51:33;9.20;99.90
22966;DHT22;11649;48.090;9.754;2023-01-05T03:54:07;9.20;99.90
22966;DHT22;11649;48.090;9.754;2023-01-05T03:56:34;9.30;99.90
22966;DHT22;11649;48.090;9.754;2023-01-05T03:59:00;9.20;99.90
22966;DHT22;11649;48.090;9.754;2023-01-05T04:01:27;9.20;99.90
22966;DHT22;11649;48.090;9.754;2023-01-05T04:03:54;9.30;99.90
22966;DHT22;11649;48.090;9.754;2023-01-05T04:06:21;9.30;99.90
22966;DHT22;11649;48.090;9.754;2023-01-05T04:08:47;9.20;99.90
22966;DHT22;11649;48.090;9.754;2023-01-05T04:11:17;9.20;99.90
22966;DHT22;11649;48.090;9.754;2023-01-05T04:13:44;9.30;99.90
22966;DHT22;11649;48.090;9.754;2023-01-05T04:16:12;9.30;99.90
22966;DHT22;11649;48.090;9.754;2023-01-05T04:18:39;9.30;99.90
22966;DHT22;11649;48.090;9.754;2023-01-05T04:21:06;9.30;99.90
22966;DHT22;11649;48.090;9.754;2023-01-05T04:23:33;9.30;99.90
22966;DHT22;11649;48.090;9.754;2023-01-05T04:26:00;9.30;99.90
22966;DHT22;11649;48.090;9.754;2023-01-05T04:28:27;9.40;99.90
22966;DHT22;11649;48.090;9.754;2023-01-05T04:30:54;9.30;99.90
22966;DHT22;11649;48.090;9.754;2023-01-05T04:33:22;9.30;99.90
22966;DHT22;11649;48.090;9.754;2023-01-05T04:35:50;9.30;99.90
22966;DHT22;11649;48.090;9.754;2023-01-05T04:38:17;9.30;99.90
22966;DHT22;11649;48.090;9.754;2023-01-05T04:40:50;9.30;99.90
22966;DHT22;11649;48.090;9.754;2023-01-05T04:43:18;9.20;99.90
22966;DHT22;11649;48.090;9.754;2023-01-05T04:45:46;9.30;99.90
22966;DHT22;11649;48.090;9.754;2023-01-05T04:48:14;9.20;99.90
22966;DHT22;11649;48.090;9.754;2023-01-05T04:50:41;9.30;99.90
22966;DHT22;11649;48.090;9.754;2023-01-05T04:53:08;9.30;99.90
22966;DHT22;11649;48.090;9.754;2023-01-05T04:55:35;9.30;99.90
22966;DHT22;11649;48.090;9.754;2023-01-05T04:58:02;9.30;99.90
22966;DHT22;11649;48.090;9.754;2023-01-05T05:00:37;9.30;99.90
22966;DHT22;11649;48.090;9.754;2023-01-05T05:03:04;9.40;99.90
22966;DHT22;11649;48.090;9.754;2023-01-05T05:05:31;9.30;99.90
22966;DHT22;11649;48.090;9.754;2023-01-05T05:07:57;9.30;99.90
22966;DHT22;11649;48.090;9.754;2023-01-05T05:10:25;9.30;99.90
22966;DHT22;11649;48.090;9.754;2023-01-05T05:12:51;9.30;99.90
22966;DHT22;11649;48.090;9.754;2023-01-05T05:15:18;9.30;99.90
22966;DHT22;11649;48.090;9.754;2023-01-05T05:17:45;9.30;99.90
22966;DHT22;11649;48.090;9.754;2023-01-05T05:20:13;9.30;99.90
22966;DHT22;11649;48.090;9.754;2023-01-05T05:22:39;9.40;99.90
22966;DHT22;11649;48.090;9.754;2023-01-05T05:25:06;9.40;99.90
22966;DHT22;11649;48.090;9.754;2023-01-05T05:27:34;9.40;99.90
22966;DHT22;11649;48.090;9.754;2023-01-05T05:30:01;9.40;99.90
22966;DHT22;11649;48.090;9.754;2023-01-05T05:32:27;9.40;99.90
22966;DHT22;11649;48.090;9.754;2023-01-05T05:34:54;9.40;99.90
22966;DHT22;11649;48.090;9.754;2023-01-05T05:37:21;9.40;99.90
22966;DHT22;11649;48.090;9.754;2023-01-05T05:39:49;9.40;99.90
22966;DHT22;11649;48.090;9.754;2023-01-05T05:42:15;9.30;99.90
22966;DHT22;11649;48.090;9.754;2023-01-05T05:44:42;9.30;99.90
22966;DHT22;11649;48.090;9.754;2023-01-05T05:47:09;9.40;99.90
22966;DHT22;11649;48.090;9.754;2023-01-05T05:49:36;9.40;99.90
22966;DHT22;11649;48.090;9.754;2023-01-05T05:52:02;9.40;99.90
22966;DHT22;11649;48.090;9.754;2023-01-05T05:54:29;9.30;99.90
22966;DHT22;11649;48.090;9.754;2023-01-05T05:56:56;9.30;99.90
22966;DHT22;11649;48.090;9.754;2023-01-05T05:59:23;9.40;99.90
22966;DHT22;11649;48.090;9.754;2023-01-05T06:01:50;9.40;99.90
22966;DHT22;11649;48.090;9.754;2023-01-05T06:04:18;9.40;99.90
22966;DHT22;11649;48.090;9.754;2023-01-05T06:06:45;9.30;99.90
22966;DHT22;11649;48.090;9.754;2023-01-05T06:09:11;9.40;99.90
22966;DHT22;11649;48.090;9.754;2023-01-05T06:11:38;9.40;99.90
22966;DHT22;11649;48.090;9.754;2023-01-05T06:14:05;9.40;99.90
22966;DHT22;11649;48.090;9.754;2023-01-05T06:16:33;9.40;99.90
22966;DHT22;11649;48.090;9.754;2023-01-05T06:19:00;9.40;99.90
22966;DHT22;11649;48.090;9.754;2023-01-05T06:21:27;9.30;99.90
22966;DHT22;11649;48.090;9.754;2023-01-05T06:23:53;9.40;99.90
22966;DHT22;11649;48.090;9.754;2023-01-05T06:26:20;9.40;99.90
22966;DHT22;11649;48.090;9.754;2023-01-05T06:28:47;9.30;99.90
22966;DHT22;11649;48.090;9.754;2023-01-05T06:31:14;9.30;99.90
22966;DHT22;11649;48.090;9.754;2023-01-05T06:33:40;9.30;99.90
22966;DHT22;11649;48.090;9.754;2023-01-05T06:36:07;9.30;99.90
22966;DHT22;11649;48.090;9.754;2023-01-05T06:38:34;9.30;99.90
22966;DHT22;11649;48.090;9.754;2023-01-05T06:41:01;9.30;99.90
22966;DHT22;11649;48.090;9.754;2023-01-05T06:43:27;9.30;99.90
22966;DHT22;11649;48.090;9.754;2023-01-05T06:45:54;9.30;99.90
22966;DHT22;11649;48.090;9.754;2023-01-05T06:48:21;9.30;99.90
22966;DHT22;11649;48.090;9.754;2023-01-05T06:50:48;9.30;99.90
22966;DHT22;11649;48.090;9.754;2023-01-05T06:53:15;9.30;99.90
22966;DHT22;11649;48.090;9.754;2023-01-05T06:55:42;9.30;99.90
22966;DHT22;11649;48.090;9.754;2023-01-05T06:58:09;9.30;99.90
22966;DHT22;11649;48.090;9.754;2023-01-05T07:06:22;9.40;99.90
22966;DHT22;11649;48.090;9.754;2023-01-05T07:08:48;9.30;99.90
22966;DHT22;11649;48.090;9.754;2023-01-05T07:11:14;9.30;99.90
22966;DHT22;11649;48.090;9.754;2023-01-05T07:13:39;9.40;99.90
22966;DHT22;11649;48.090;9.754;2023-01-05T07:16:05;9.40;99.90
22966;DHT22;11649;48.090;9.754;2023-01-05T07:18:31;9.40;99.90
22966;DHT22;11649;48.090;9.754;2023-01-05T07:20:59;9.40;99.90
22966;DHT22;11649;48.090;9.754;2023-01-05T07:23:25;9.40;99.90
22966;DHT22;11649;48.090;9.754;2023-01-05T07:25:50;9.40;99.90
22966;DHT22;11649;48.090;9.754;2023-01-05T07:28:16;9.50;99.90
22966;DHT22;11649;48.090;9.754;2023-01-05T07:30:42;9.50;99.90
22966;DHT22;11649;48.090;9.754;2023-01-05T07:33:07;9.50;99.90
22966;DHT22;11649;48.090;9.754;2023-01-05T07:35:33;9.50;99.90
22966;DHT22;11649;48.090;9.754;2023-01-05T07:37:58;9.40;99.90
22966;DHT22;11649;48.090;9.754;2023-01-05T07:40:24;9.40;99.90
22966;DHT22;11649;48.090;9.754;2023-01-05T07:42:51;9.40;99.90
22966;DHT22;11649;48.090;9.754;2023-01-05T07:45:16;9.30;99.90
22966;DHT22;11649;48.090;9.754;2023-01-05T07:47:43;9.30;99.90
22966;DHT22;11649;48.090;9.754;2023-01-05T07:50:09;9.20;99.90
22966;DHT22;11649;48.090;9.754;2023-01-05T07:52:34;9.20;99.90
22966;DHT22;11649;48.090;9.754;2023-01-05T07:55:00;9.10;99.90
22966;DHT22;11649;48.090;9.754;2023-01-05T07:57:26;9.20;99.90
22966;DHT22;11649;48.090;9.754;2023-01-05T07:59:51;9.20;99.90
22966;DHT22;11649;48.090;9.754;2023-01-05T08:02:17;9.20;99.90
22966;DHT22;11649;48.090;9.754;2023-01-05T08:04:42;9.20;99.90
22966;DHT22;11649;48.090;9.754;2023-01-05T08:07:08;9.30;99.90
22966;DHT22;11649;48.090;9.754;2023-01-05T08:09:36;9.30;99.90
22966;DHT22;11649;48.090;9.754;2023-01-05T08:12:21;9.30;99.90
22966;DHT22;11649;48.090;9.754;2023-01-05T08:14:46;9.40;99.90
22966;DHT22;11649;48.090;9.754;2023-01-05T08:17:12;9.40;99.90
22966;DHT22;11649;48.090;9.754;2023-01-05T08:19:38;9.30;99.90
22966;DHT22;11649;48.090;9.754;2023-01-05T08:22:03;9.40;99.90
22966;DHT22;11649;48.090;9.754;2023-01-05T08:24:29;9.30;99.90
22966;DHT22;11649;48.090;9.754;2023-01-05T08:26:55;9.40;99.90
22966;DHT22;11649;48.090;9.754;2023-01-05T08:29:20;9.50;99.90
22966;DHT22;11649;48.090;9.754;2023-01-05T08:31:46;9.50;99.90
22966;DHT22;11649;48.090;9.754;2023-01-05T08:34:12;9.50;99.90
22966;DHT22;11649;48.090;9.754;2023-01-05T08:36:38;9.50;99.90
22966;DHT22;11649;48.090;9.754;2023-01-05T08:39:05;9.60;99.90
22966;DHT22;11649;48.090;9.754;2023-01-05T08:41:33;9.50;99.90
22966;DHT22;11649;48.090;9.754;2023-01-05T08:44:02;9.60;99.90
22966;DHT22;11649;48.090;9.754;2023-01-05T08:46:31;9.50;99.90
22966;DHT22;11649;48.090;9.754;2023-01-05T08:49:02;9.50;99.90
22966;DHT22;11649;48.090;9.754;2023-01-05T08:51:28;9.50;99.90
22966;DHT22;11649;48.090;9.754;2023-01-05T08:53:54;9.50;99.90
22966;DHT22;11649;48.090;9.754;2023-01-05T08:56:20;9.40;99.90
22966;DHT22;11649;48.090;9.754;2023-01-05T08:58:46;9.30;99.90
22966;DHT22;11649;48.090;9.754;2023-01-05T09:01:14;9.30;99.90
22966;DHT22;11649;48.090;9.754;2023-01-05T09:03:40;9.30;99.90
22966;DHT22;11649;48.090;9.754;2023-01-05T09:06:07;9.30;99.90
22966;DHT22;11649;48.090;9.754;2023-01-05T09:08:34;9.30;99.90
22966;DHT22;11649;48.090;9.754;2023-01-05T09:11:06;9.30;99.90
22966;DHT22;11649;48.090;9.754;2023-01-05T09:13:33;9.40;99.90
22966;DHT22;11649;48.090;9.754;2023-01-05T09:16:08;9.40;99.90
22966;DHT22;11649;48.090;9.754;2023-01-05T09:18:37;9.40;99.90
22966;DHT22;11649;48.090;9.754;2023-01-05T09:21:04;9.40;99.90
22966;DHT22;11649;48.090;9.754;2023-01-05T09:23:32;9.50;99.90
22966;DHT22;11649;48.090;9.754;2023-01-05T09:26:01;9.40;99.90
22966;DHT22;11649;48.090;9.754;2023-01-05T09:28:28;9.50;99.90
22966;DHT22;11649;48.090;9.754;2023-01-05T09:30:55;9.40;99.90
22966;DHT22;11649;48.090;9.754;2023-01-05T09:33:22;9.40;99.90
22966;DHT22;11649;48.090;9.754;2023-01-05T09:35:56;9.40;99.90
22966;DHT22;11649;48.090;9.754;2023-01-05T09:38:23;9.40;99.90
22966;DHT22;11649;48.090;9.754;2023-01-05T09:40:53;9.30;99.90
22966;DHT22;11649;48.090;9.754;2023-01-05T09:43:36;9.40;99.90
22966;DHT22;11649;48.090;9.754;2023-01-05T09:46:06;9.30;99.90
22966;DHT22;11649;48.090;9.754;2023-01-05T09:48:39;9.30;99.90
22966;DHT22;11649;48.090;9.754;2023-01-05T09:51:08;9.50;99.90
22966;DHT22;11649;48.090;9.754;2023-01-05T09:53:35;9.40;99.90
22966;DHT22;11649;48.090;9.754;2023-01-05T09:56:03;9.50;99.90
22966;DHT22;11649;48.090;9.754;2023-01-05T09:58:34;9.50;99.90
22966;DHT22;11649;48.090;9.754;2023-01-05T10:01:12;9.60;99.90
22966;DHT22;11649;48.090;9.754;2023-01-05T10:03:57;9.70;99.90
22966;DHT22;11649;48.090;9.754;2023-01-05T10:06:34;9.80;99.90
22966;DHT22;11649;48.090;9.754;2023-01-05T10:09:04;9.90;99.90
22966;DHT22;11649;48.090;9.754;2023-01-05T10:11:38;9.90;99.90
22966;DHT22;11649;48.090;9.754;2023-01-05T10:14:36;9.90;99.90
22966;DHT22;11649;48.090;9.754;2023-01-05T10:17:09;9.90;99.90
22966;DHT22;11649;48.090;9.754;2023-01-05T10:19:58;9.90;99.90
22966;DHT22;11649;48.090;9.754;2023-01-05T10:25:24;9.80;99.90
22966;DHT22;11649;48.090;9.754;2023-01-05T10:33:30;10.00;99.90
22966;DHT22;11649;48.090;9.754;2023-01-05T10:36:20;10.00;99.90
22966;DHT22;11649;48.090;9.754;2023-01-05T10:44:51;10.10;99.90
22966;DHT22;11649;48.090;9.754;2023-01-05T10:47:21;10.00;99.90
22966;DHT22;11649;48.090;9.754;2023-01-05T10:49:49;10.00;99.90
22966;DHT22;11649;48.090;9.754;2023-01-05T10:52:20;10.00;99.90
22966;DHT22;11649;48.090;9.754;2023-01-05T10:54:58;10.00;99.90
22966;DHT22;11649;48.090;9.754;2023-01-05T11:02:39;9.90;99.90
22966;DHT22;11649;48.090;9.754;2023-01-05T11:07:51;10.00;99.90
22966;DHT22;11649;48.090;9.754;2023-01-05T11:10:34;10.20;99.90
22966;DHT22;11649;48.090;9.754;2023-01-05T11:13:17;10.40;99.90
22966;DHT22;11649;48.090;9.754;2023-01-05T11:15:53;10.70;99.90
22966;DHT22;11649;48.090;9.754;2023-01-05T11:18:33;11.10;99.90
22966;DHT22;11649;48.090;9.754;2023-01-05T11:21:10;11.20;99.90
22966;DHT22;11649;48.090;9.754;2023-01-05T11:31:21;10.80;99.90
22966;DHT22;11649;48.090;9.754;2023-01-05T11:33:55;10.80;99.90
22966;DHT22;11649;48.090;9.754;2023-01-05T11:36:24;10.70;99.90
22966;DHT22;11649;48.090;9.754;2023-01-05T11:38:53;10.60;99.90
22966;DHT22;11649;48.090;9.754;2023-01-05T11:41:21;10.70;99.90
22966;DHT22;11649;48.090;9.754;2023-01-05T11:43:49;10.70;99.90
22966;DHT22;11649;48.090;9.754;2023-01-05T11:46:17;11.00;99.90
22966;DHT22;11649;48.090;9.754;2023-01-05T11:48:55;11.30;99.90
22966;DHT22;11649;48.090;9.754;2023-01-05T11:54:00;11.50;99.90
22966;DHT22;11649;48.090;9.754;2023-01-05T11:56:27;11.50;99.90
22966;DHT22;11649;48.090;9.754;2023-01-05T11:58:55;11.60;99.90
22966;DHT22;11649;48.090;9.754;2023-01-05T12:07:36;11.60;99.90
22966;DHT22;11649;48.090;9.754;2023-01-05T12:10:17;11.50;99.90
22966;DHT22;11649;48.090;9.754;2023-01-05T12:13:21;11.50;99.90
22966;DHT22;11649;48.090;9.754;2023-01-05T12:16:14;11.50;99.90
22966;DHT22;11649;48.090;9.754;2023-01-05T12:21:23;11.30;99.90
22966;DHT22;11649;48.090;9.754;2023-01-05T12:30:06;11.30;99.90
22966;DHT22;11649;48.090;9.754;2023-01-05T12:33:29;11.30;99.90
22966;DHT22;11649;48.090;9.754;2023-01-05T12:39:35;11.20;99.90
22966;DHT22;11649;48.090;9.754;2023-01-05T12:47:59;11.20;99.90
22966;DHT22;11649;48.090;9.754;2023-01-05T12:50:41;11.20;99.90
22966;DHT22;11649;48.090;9.754;2023-01-05T12:53:28;11.10;99.90
22966;DHT22;11649;48.090;9.754;2023-01-05T12:56:01;11.10;99.90
22966;DHT22;11649;48.090;9.754;2023-01-05T12:58:37;11.10;99.90
22966;DHT22;11649;48.090;9.754;2023-01-05T13:01:14;11.00;99.90
22966;DHT22;11649;48.090;9.754;2023-01-05T13:03:54;11.10;99.90
22966;DHT22;11649;48.090;9.754;2023-01-05T13:06:23;11.00;99.90
22966;DHT22;11649;48.090;9.754;2023-01-05T13:08:56;11.00;99.90
22966;DHT22;11649;48.090;9.754;2023-01-05T13:13:57;10.90;99.90
22966;DHT22;11649;48.090;9.754;2023-01-05T13:16:35;10.80;99.90
22966;DHT22;11649;48.090;9.754;2023-01-05T13:19:17;10.80;99.90
22966;DHT22;11649;48.090;9.754;2023-01-05T13:21:46;10.80;99.90
22966;DHT22;11649;48.090;9.754;2023-01-05T13:24:32;10.80;99.90
22966;DHT22;11649;48.090;9.754;2023-01-05T13:27:01;10.80;99.90
22966;DHT22;11649;48.090;9.754;2023-01-05T13:29:40;10.70;99.90
22966;DHT22;11649;48.090;9.754;2023-01-05T13:32:15;10.60;99.90
22966;DHT22;11649;48.090;9.754;2023-01-05T13:40:44;10.70;99.90
22966;DHT22;11649;48.090;9.754;2023-01-05T13:51:52;10.70;99.90
22966;DHT22;11649;48.090;9.754;2023-01-05T13:54:33;10.70;99.90
22966;DHT22;11649;48.090;9.754;2023-01-05T13:57:25;10.70;99.90
22966;DHT22;11649;48.090;9.754;2023-01-05T14:00:02;10.70;99.90
22966;DHT22;11649;48.090;9.754;2023-01-05T14:02:40;10.70;99.90
22966;DHT22;11649;48.090;9.754;2023-01-05T14:05:23;10.80;99.90
22966;DHT22;11649;48.090;9.754;2023-01-05T14:07:51;10.70;99.90
22966;DHT22;11649;48.090;9.754;2023-01-05T14:10:22;10.70;99.90
22966;DHT22;11649;48.090;9.754;2023-01-05T14:12:51;10.70;99.90
22966;DHT22;11649;48.090;9.754;2023-01-05T14:15:32;10.60;99.90
22966;DHT22;11649;48.090;9.754;2023-01-05T14:18:00;10.70;99.90
22966;DHT22;11649;48.090;9.754;2023-01-05T14:22:55;10.70;99.90
22966;DHT22;11649;48.090;9.754;2023-01-05T14:37:04;10.70;99.90
22966;DHT22;11649;48.090;9.754;2023-01-05T14:39:50;11.00;99.90
22966;DHT22;11649;48.090;9.754;2023-01-05T14:42:36;10.70;99.90
22966;DHT22;11649;48.090;9.754;2023-01-05T14:45:20;10.70;99.90
22966;DHT22;11649;48.090;9.754;2023-01-05T14:47:49;10.60;99.90
22966;DHT22;11649;48.090;9.754;2023-01-05T14:50:38;10.60;99.90
22966;DHT22;11649;48.090;9.754;2023-01-05T14:56:26;10.60;99.90
22966;DHT22;11649;48.090;9.754;2023-01-05T15:04:07;10.60;99.90
22966;DHT22;11649;48.090;9.754;2023-01-05T15:09:58;10.60;99.90
22966;DHT22;11649;48.090;9.754;2023-01-05T15:16:00;10.60;99.90
22966;DHT22;11649;48.090;9.754;2023-01-05T15:22:29;10.50;99.90
22966;DHT22;11649;48.090;9.754;2023-01-05T15:27:56;10.50;99.90
22966;DHT22;11649;48.090;9.754;2023-01-05T15:33:19;10.50;99.90
22966;DHT22;11649;48.090;9.754;2023-01-05T15:35:56;10.40;99.90
22966;DHT22;11649;48.090;9.754;2023-01-05T15:38:28;10.30;99.90
22966;DHT22;11649;48.090;9.754;2023-01-05T15:41:03;10.30;99.90
22966;DHT22;11649;48.090;9.754;2023-01-05T15:43:32;10.50;99.90
22966;DHT22;11649;48.090;9.754;2023-01-05T15:46:00;10.30;99.90
22966;DHT22;11649;48.090;9.754;2023-01-05T15:48:39;10.30;99.90
22966;DHT22;11649;48.090;9.754;2023-01-05T15:51:07;10.40;99.90
22966;DHT22;11649;48.090;9.754;2023-01-05T15:53:39;10.30;99.90
22966;DHT22;11649;48.090;9.754;2023-01-05T15:56:26;10.40;99.90
22966;DHT22;11649;48.090;9.754;2023-01-05T15:58:55;10.40;99.90
22966;DHT22;11649;48.090;9.754;2023-01-05T16:01:21;10.30;99.90
22966;DHT22;11649;48.090;9.754;2023-01-05T16:03:49;10.30;99.90
22966;DHT22;11649;48.090;9.754;2023-01-05T16:06:25;10.20;99.90
22966;DHT22;11649;48.090;9.754;2023-01-05T16:08:55;10.30;99.90
22966;DHT22;11649;48.090;9.754;2023-01-05T16:11:29;10.30;99.90
22966;DHT22;11649;48.090;9.754;2023-01-05T16:14:05;10.30;99.90
22966;DHT22;11649;48.090;9.754;2023-01-05T16:16:37;10.30;99.90
22966;DHT22;11649;48.090;9.754;2023-01-05T16:19:26;10.30;99.90
22966;DHT22;11649;48.090;9.754;2023-01-05T16:25:02;10.30;99.90
22966;DHT22;11649;48.090;9.754;2023-01-05T16:27:36;10.20;99.90
22966;DHT22;11649;48.090;9.754;2023-01-05T16:30:29;10.10;99.90
22966;DHT22;11649;48.090;9.754;2023-01-05T16:33:00;10.10;99.90
22966;DHT22;11649;48.090;9.754;2023-01-05T16:35:46;10.10;99.90
22966;DHT22;11649;48.090;9.754;2023-01-05T16:38:23;10.10;99.90
22966;DHT22;11649;48.090;9.754;2023-01-05T16:41:07;10.10;99.90
22966;DHT22;11649;48.090;9.754;2023-01-05T16:48:50;10.10;99.90
22966;DHT22;11649;48.090;9.754;2023-01-05T16:51:19;10.20;99.90
22966;DHT22;11649;48.090;9.754;2023-01-05T16:53:50;10.20;99.90
22966;DHT22;11649;48.090;9.754;2023-01-05T16:58:45;10.20;99.90
22966;DHT22;11649;48.090;9.754;2023-01-05T17:03:39;10.20;99.90
22966;DHT22;11649;48.090;9.754;2023-01-05T17:08:43;10.20;99.90
22966;DHT22;11649;48.090;9.754;2023-01-05T17:11:10;10.20;99.90
22966;DHT22;11649;48.090;9.754;2023-01-05T17:13:58;10.30;99.90
22966;DHT22;11649;48.090;9.754;2023-01-05T17:16:26;10.10;99.90
22966;DHT22;11649;48.090;9.754;2023-01-05T17:18:52;10.30;99.90
22966;DHT22;11649;48.090;9.754;2023-01-05T17:21:22;10.10;99.90
22966;DHT22;11649;48.090;9.754;2023-01-05T17:23:55;10.00;99.90
22966;DHT22;11649;48.090;9.754;2023-01-05T17:26:33;10.00;99.90
22966;DHT22;11649;48.090;9.754;2023-01-05T17:29:01;10.00;99.90
22966;DHT22;11649;48.090;9.754;2023-01-05T17:31:28;10.10;99.90
22966;DHT22;11649;48.090;9.754;2023-01-05T17:33:55;10.00;99.90
22966;DHT22;11649;48.090;9.754;2023-01-05T17:36:26;10.00;99.90
22966;DHT22;11649;48.090;9.754;2023-01-05T17:38:53;10.00;99.90
22966;DHT22;11649;48.090;9.754;2023-01-05T17:41:20;10.00;99.90
22966;DHT22;11649;48.090;9.754;2023-01-05T17:43:47;10.10;99.90
22966;DHT22;11649;48.090;9.754;2023-01-05T17:46:19;10.00;99.90
22966;DHT22;11649;48.090;9.754;2023-01-05T17:48:47;10.00;99.90
22966;DHT22;11649;48.090;9.754;2023-01-05T17:51:14;10.00;99.90
22966;DHT22;11649;48.090;9.754;2023-01-05T17:53:41;9.90;99.90
22966;DHT22;11649;48.090;9.754;2023-01-05T17:56:08;10.00;99.90
22966;DHT22;11649;48.090;9.754;2023-01-05T17:58:34;9.90;99.90
22966;DHT22;11649;48.090;9.754;2023-01-05T18:01:03;9.90;99.90
22966;DHT22;11649;48.090;9.754;2023-01-05T18:03:31;9.80;99.90
22966;DHT22;11649;48.090;9.754;2023-01-05T18:05:59;9.80;99.90
22966;DHT22;11649;48.090;9.754;2023-01-05T18:08:27;9.90;99.90
22966;DHT22;11649;48.090;9.754;2023-01-05T18:10:54;10.20;99.90
22966;DHT22;11649;48.090;9.754;2023-01-05T18:13:21;9.80;99.90
22966;DHT22;11649;48.090;9.754;2023-01-05T18:15:48;9.70;99.90
22966;DHT22;11649;48.090;9.754;2023-01-05T18:18:17;9.70;99.90
22966;DHT22;11649;48.090;9.754;2023-01-05T18:20:46;9.80;99.90
22966;DHT22;11649;48.090;9.754;2023-01-05T18:23:17;9.70;99.90
22966;DHT22;11649;48.090;9.754;2023-01-05T18:25:44;9.70;99.90
22966;DHT22;11649;48.090;9.754;2023-01-05T18:28:11;9.80;99.90
22966;DHT22;11649;48.090;9.754;2023-01-05T18:30:41;9.80;99.90
22966;DHT22;11649;48.090;9.754;2023-01-05T18:33:08;9.80;99.90
22966;DHT22;11649;48.090;9.754;2023-01-05T18:35:39;9.70;99.90
22966;DHT22;11649;48.090;9.754;2023-01-05T18:38:09;9.70;99.90
22966;DHT22;11649;48.090;9.754;2023-01-05T18:40:36;9.70;99.90